createdAt,value
2022-10-03T00:01:21.201Z,0
2022-10-03T00:03:48.036Z,0
2022-10-03T00:06:14.630Z,0
2022-10-03T00:08:41.247Z,0
2022-10-03T00:11:07.846Z,0
2022-10-03T00:13:34.459Z,0
2022-10-03T00:16:01.101Z,0
2022-10-03T00:18:27.725Z,0
2022-10-03T00:20:54.397Z,0
2022-10-03T00:23:20.953Z,0
2022-10-03T00:25:47.585Z,0
2022-10-03T00:28:12.746Z,0
2022-10-03T00:30:39.345Z,0
2022-10-03T00:33:05.976Z,0
2022-10-03T00:35:32.549Z,0
2022-10-03T00:37:59.193Z,0
2022-10-03T00:40:25.679Z,0
2022-10-03T00:42:52.440Z,0
2022-10-03T00:45:19.094Z,0
2022-10-03T00:47:45.720Z,0
2022-10-03T00:50:12.298Z,0
2022-10-03T00:52:38.957Z,0
2022-10-03T00:55:05.432Z,0
2022-10-03T00:57:32.176Z,0
2022-10-03T00:59:57.333Z,0
2022-10-03T01:02:23.921Z,0
2022-10-03T01:04:50.577Z,0
2022-10-03T01:07:17.207Z,0
2022-10-03T01:09:43.856Z,0
2022-10-03T01:12:10.422Z,0
2022-10-03T01:14:37.060Z,0
2022-10-03T01:21:56.938Z,0
2022-10-03T01:24:23.566Z,0
2022-10-03T01:26:50.229Z,0
2022-10-03T01:29:16.779Z,0
2022-10-03T01:31:41.842Z,0
2022-10-03T01:34:08.550Z,0
2022-10-03T01:36:35.127Z,0
2022-10-03T01:39:01.807Z,0
2022-10-03T01:41:28.250Z,0
2022-10-03T01:43:55.026Z,0
2022-10-03T01:46:21.689Z,0
2022-10-03T01:48:48.307Z,0
2022-10-03T01:51:16.255Z,0
2022-10-03T01:53:41.603Z,0
2022-10-03T01:56:08.132Z,0
2022-10-03T01:58:34.797Z,0
2022-10-03T02:01:01.401Z,0
2022-10-03T02:03:26.531Z,0
2022-10-03T02:05:53.156Z,0
2022-10-03T02:08:19.766Z,0
2022-10-03T02:10:46.399Z,0
2022-10-03T02:13:13.027Z,0
2022-10-03T02:15:39.713Z,0
2022-10-03T02:18:06.207Z,0
2022-10-03T02:20:32.880Z,0
2022-10-03T02:22:59.511Z,0
2022-10-03T02:25:26.114Z,0
2022-10-03T02:27:52.728Z,0
2022-10-03T02:30:19.384Z,0
2022-10-03T02:32:45.855Z,0
2022-10-03T02:35:12.598Z,0
2022-10-03T02:37:37.743Z,0
2022-10-03T02:40:04.398Z,0
2022-10-03T02:42:30.931Z,0
2022-10-03T02:44:57.638Z,0
2022-10-03T02:47:24.239Z,0
2022-10-03T02:49:50.786Z,0
2022-10-03T02:52:17.449Z,0
2022-10-03T02:54:43.987Z,0
2022-10-03T02:57:10.617Z,0
2022-10-03T02:59:37.361Z,0
2022-10-03T03:02:03.882Z,0
2022-10-03T03:04:30.440Z,0
2022-10-03T03:06:57.118Z,0
2022-10-03T03:09:22.238Z,0
2022-10-03T03:11:48.937Z,0
2022-10-03T03:14:15.433Z,0
2022-10-03T03:16:42.065Z,0
2022-10-03T03:19:08.715Z,0
2022-10-03T03:21:35.331Z,0
2022-10-03T03:24:01.935Z,0
2022-10-03T03:26:28.581Z,0
2022-10-03T03:28:55.196Z,0
2022-10-03T03:31:21.847Z,0
2022-10-03T03:33:48.552Z,0
2022-10-03T03:36:15.178Z,0
2022-10-03T03:38:41.697Z,0
2022-10-03T03:41:08.292Z,0
2022-10-03T03:43:35.038Z,0
2022-10-03T03:46:00.045Z,0
2022-10-03T03:48:26.671Z,0
2022-10-03T03:50:53.381Z,0
2022-10-03T03:53:19.973Z,0
2022-10-03T03:55:46.555Z,0
2022-10-03T04:00:39.896Z,0
2022-10-03T04:03:06.515Z,0
2022-10-03T04:05:33.138Z,0
2022-10-03T04:07:59.647Z,0
2022-10-03T04:10:26.283Z,0
2022-10-03T04:12:53.015Z,0
2022-10-03T04:15:19.586Z,0
2022-10-03T04:17:46.255Z,0
2022-10-03T04:20:11.386Z,0
2022-10-03T04:22:37.997Z,0
2022-10-03T04:25:04.577Z,0
2022-10-03T04:27:31.195Z,0
2022-10-03T04:29:57.879Z,0
2022-10-03T04:32:24.391Z,0
2022-10-03T04:34:51.020Z,0
2022-10-03T04:37:17.658Z,0
2022-10-03T04:39:44.283Z,0
2022-10-03T04:42:11.020Z,0
2022-10-03T04:44:37.505Z,0
2022-10-03T04:47:04.135Z,0
2022-10-03T04:49:30.755Z,0
2022-10-03T04:51:55.930Z,0
2022-10-03T04:54:22.510Z,0
2022-10-03T04:56:49.133Z,0
2022-10-03T04:59:15.743Z,0
2022-10-03T05:01:42.389Z,0
2022-10-03T05:04:08.994Z,0
2022-10-03T05:06:35.661Z,4
2022-10-03T05:09:02.224Z,4
2022-10-03T05:11:28.986Z,8
2022-10-03T05:13:55.476Z,16
2022-10-03T05:16:22.096Z,24
2022-10-03T05:18:48.728Z,24
2022-10-03T05:21:15.377Z,32
2022-10-03T05:23:40.473Z,40
2022-10-03T05:26:07.101Z,56
2022-10-03T05:28:33.738Z,76
2022-10-03T05:31:00.347Z,100
2022-10-03T05:33:26.979Z,120
2022-10-03T05:35:53.604Z,128
2022-10-03T05:38:20.227Z,132
2022-10-03T05:40:46.858Z,148
2022-10-03T05:43:13.466Z,120
2022-10-03T05:45:40.143Z,108
2022-10-03T05:48:06.850Z,112
2022-10-03T05:50:33.342Z,136
2022-10-03T05:52:59.965Z,172
2022-10-03T05:55:25.145Z,240
2022-10-03T05:57:51.780Z,389
2022-10-03T06:00:18.371Z,574
2022-10-03T06:02:44.949Z,758
2022-10-03T06:05:11.592Z,1052
2022-10-03T06:07:38.297Z,1276
2022-10-03T06:10:04.848Z,1417
2022-10-03T06:12:31.575Z,1827
2022-10-03T06:14:58.167Z,2349
2022-10-03T06:17:24.674Z,2690
2022-10-03T06:19:51.331Z,2574
2022-10-03T06:22:17.931Z,2409
2022-10-03T06:24:44.601Z,2236
2022-10-03T06:27:09.679Z,2160
2022-10-03T06:29:36.320Z,2048
2022-10-03T06:32:02.926Z,1855
2022-10-03T06:36:56.200Z,1927
2022-10-03T06:39:22.804Z,2039
2022-10-03T06:41:49.428Z,2582
2022-10-03T06:44:16.145Z,2441
2022-10-03T06:46:42.666Z,2048
2022-10-03T06:49:09.312Z,1782
2022-10-03T06:51:36.068Z,1594
2022-10-03T06:54:02.635Z,1112
2022-10-03T06:56:29.149Z,935
2022-10-03T06:58:54.390Z,951
2022-10-03T07:01:20.944Z,995
2022-10-03T07:03:47.534Z,1007
2022-10-03T07:06:14.222Z,987
2022-10-03T07:08:40.786Z,955
2022-10-03T07:13:34.030Z,766
2022-10-03T07:16:00.763Z,1088
2022-10-03T07:18:27.308Z,1750
2022-10-03T07:20:53.923Z,2481
2022-10-03T07:23:20.517Z,3019
2022-10-03T07:25:47.477Z,4308
2022-10-03T07:28:13.761Z,4509
2022-10-03T07:30:38.897Z,3361
2022-10-03T07:33:05.506Z,2863
2022-10-03T07:35:32.130Z,1931
2022-10-03T07:37:58.766Z,1558
2022-10-03T07:40:25.401Z,1317
2022-10-03T07:42:52.073Z,1321
2022-10-03T07:45:18.633Z,1361
2022-10-03T07:47:45.248Z,1582
2022-10-03T07:50:11.872Z,1883
2022-10-03T07:52:38.498Z,1533
2022-10-03T07:55:05.126Z,1240
2022-10-03T07:57:31.762Z,1433
2022-10-03T07:59:58.423Z,2068
2022-10-03T08:02:24.998Z,3031
2022-10-03T08:04:50.127Z,3063
2022-10-03T08:07:16.774Z,3096
2022-10-03T08:09:43.356Z,3164
2022-10-03T08:12:11.043Z,2453
2022-10-03T08:14:36.638Z,1734
2022-10-03T08:17:03.235Z,1493
2022-10-03T08:19:29.925Z,1622
2022-10-03T08:21:56.624Z,1313
2022-10-03T08:24:23.154Z,1068
2022-10-03T08:26:49.727Z,983
2022-10-03T08:29:16.352Z,1015
2022-10-03T08:31:42.967Z,1088
2022-10-03T08:34:09.600Z,995
2022-10-03T08:36:34.725Z,1028
2022-10-03T08:39:01.348Z,1200
2022-10-03T08:41:28.065Z,1256
2022-10-03T08:43:54.674Z,1317
2022-10-03T08:46:21.238Z,1618
2022-10-03T08:48:47.847Z,1746
2022-10-03T08:51:14.492Z,1855
2022-10-03T08:53:41.091Z,1714
2022-10-03T08:56:07.717Z,1746
2022-10-03T09:01:00.970Z,2164
2022-10-03T09:03:27.582Z,3260
2022-10-03T09:05:54.257Z,4377
2022-10-03T09:08:20.888Z,5818
2022-10-03T09:10:46.078Z,6826
2022-10-03T09:13:12.592Z,6585
2022-10-03T09:15:39.227Z,6533
2022-10-03T09:18:05.826Z,6421
2022-10-03T09:20:32.501Z,6674
2022-10-03T09:22:59.082Z,6292
2022-10-03T09:25:25.696Z,6091
2022-10-03T09:27:52.426Z,6196
2022-10-03T09:30:18.955Z,8613
2022-10-03T09:32:45.563Z,9203
2022-10-03T09:35:12.194Z,32960
2022-10-03T09:37:38.847Z,10749
2022-10-03T09:40:05.433Z,10240
2022-10-03T09:42:30.554Z,8593
2022-10-03T09:44:57.237Z,8244
2022-10-03T09:47:23.815Z,9159
2022-10-03T09:49:50.454Z,9501
2022-10-03T09:54:43.743Z,9593
2022-10-03T09:57:10.294Z,7930
2022-10-03T09:59:36.919Z,6425
2022-10-03T10:02:03.547Z,5513
2022-10-03T10:04:30.168Z,4180
2022-10-03T10:06:56.786Z,3923
2022-10-03T10:09:23.459Z,3786
2022-10-03T10:11:50.086Z,4369
2022-10-03T10:14:16.639Z,5955
2022-10-03T10:16:41.829Z,6300
2022-10-03T10:19:08.410Z,4919
2022-10-03T10:21:35.036Z,5083
2022-10-03T10:24:01.641Z,5517
2022-10-03T10:26:28.269Z,5344
2022-10-03T10:28:54.887Z,6131
2022-10-03T10:31:21.514Z,7541
2022-10-03T10:33:48.164Z,8457
2022-10-03T10:36:14.804Z,8802
2022-10-03T10:38:41.436Z,7344
2022-10-03T10:43:34.623Z,6694
2022-10-03T10:46:01.244Z,5899
2022-10-03T10:48:26.410Z,6051
2022-10-03T10:50:52.997Z,5368
2022-10-03T10:53:19.627Z,4071
2022-10-03T10:55:46.241Z,4413
2022-10-03T10:58:12.902Z,5288
2022-10-03T11:00:39.493Z,5328
2022-10-03T11:03:06.171Z,5810
2022-10-03T11:05:32.737Z,5886
2022-10-03T11:07:59.346Z,4377
2022-10-03T11:10:25.985Z,4015
2022-10-03T11:12:52.665Z,3248
2022-10-03T11:15:19.217Z,2987
2022-10-03T11:17:45.956Z,3425
2022-10-03T11:20:10.980Z,3509
2022-10-03T11:22:37.639Z,3461
2022-10-03T11:25:04.222Z,3108
2022-10-03T11:27:30.837Z,2493
2022-10-03T11:29:57.457Z,2413
2022-10-03T11:32:24.099Z,2545
2022-10-03T11:34:50.733Z,2373
2022-10-03T11:37:16.555Z,2309
2022-10-03T11:39:43.169Z,2461
2022-10-03T11:42:09.798Z,2798
2022-10-03T11:44:36.422Z,3039
2022-10-03T11:47:03.070Z,3714
2022-10-03T11:49:29.658Z,3830
2022-10-03T11:51:56.282Z,3690
2022-10-03T11:54:21.440Z,4023
2022-10-03T11:56:48.043Z,4509
2022-10-03T11:59:14.664Z,4850
2022-10-03T12:01:41.287Z,4927
2022-10-03T12:04:07.893Z,4931
2022-10-03T12:06:34.588Z,4140
2022-10-03T12:09:01.215Z,3047
2022-10-03T12:13:54.391Z,4244
2022-10-03T12:16:21.030Z,4272
2022-10-03T12:21:14.261Z,4469
2022-10-03T12:23:40.888Z,4959
2022-10-03T12:26:07.528Z,5168
2022-10-03T12:28:34.137Z,5120
2022-10-03T12:30:59.262Z,5091
2022-10-03T12:33:25.902Z,3935
2022-10-03T12:35:52.546Z,3730
2022-10-03T12:38:19.121Z,3610
2022-10-03T12:40:45.771Z,4630
2022-10-03T12:43:12.372Z,3706
2022-10-03T12:45:39.003Z,3096
2022-10-03T12:48:05.624Z,2646
2022-10-03T12:50:32.269Z,2441
2022-10-03T12:52:58.917Z,2533
2022-10-03T12:55:25.491Z,2602
2022-10-03T12:57:52.141Z,2393
2022-10-03T13:00:18.729Z,2152
2022-10-03T13:05:10.489Z,3039
2022-10-03T13:07:37.135Z,3786
2022-10-03T13:12:30.357Z,4192
2022-10-03T13:14:57.002Z,4296
2022-10-03T13:17:23.605Z,3569
2022-10-03T13:19:50.296Z,3192
2022-10-03T13:24:43.512Z,3212
2022-10-03T13:27:08.608Z,2927
2022-10-03T13:32:00.384Z,2566
2022-10-03T13:34:27.056Z,2911
2022-10-03T13:36:53.582Z,2959
2022-10-03T13:39:18.735Z,2746
2022-10-03T13:41:45.364Z,2517
2022-10-03T13:44:12.012Z,2389
2022-10-03T13:46:38.579Z,2188
2022-10-03T13:49:05.221Z,2060
2022-10-03T13:51:31.966Z,2212
2022-10-03T13:53:58.498Z,2292
2022-10-03T13:56:25.097Z,2417
2022-10-03T13:58:50.240Z,2871
2022-10-03T14:03:43.473Z,2983
2022-10-03T14:06:08.599Z,2987
2022-10-03T14:08:35.272Z,2823
2022-10-03T14:11:01.830Z,3152
2022-10-03T14:13:28.539Z,3268
2022-10-03T14:15:55.084Z,2883
2022-10-03T14:18:21.753Z,2630
2022-10-03T14:20:48.335Z,2682
2022-10-03T14:23:14.948Z,2634
2022-10-03T14:25:41.639Z,2582
2022-10-03T14:28:08.204Z,2337
2022-10-03T14:30:34.833Z,2305
2022-10-03T14:33:01.502Z,2176
2022-10-03T14:35:28.134Z,1999
2022-10-03T14:37:53.257Z,2092
2022-10-03T14:40:19.875Z,2264
2022-10-03T14:42:46.484Z,2292
2022-10-03T14:45:13.066Z,2188
2022-10-03T14:47:39.683Z,1815
2022-10-03T14:50:06.310Z,1662
2022-10-03T14:52:33.029Z,1654
2022-10-03T14:54:59.591Z,1891
2022-10-03T14:57:26.212Z,2100
2022-10-03T14:59:52.834Z,1975
2022-10-03T15:02:19.530Z,1815
2022-10-03T15:04:46.044Z,1831
2022-10-03T15:07:12.790Z,1738
2022-10-03T15:09:37.894Z,1445
2022-10-03T15:12:04.513Z,1224
2022-10-03T15:14:31.136Z,1060
2022-10-03T15:16:57.787Z,907
2022-10-03T15:19:24.307Z,783
2022-10-03T15:21:50.972Z,742
2022-10-03T15:24:17.539Z,766
2022-10-03T15:26:44.248Z,698
2022-10-03T15:29:10.854Z,694
2022-10-03T15:31:37.562Z,750
2022-10-03T15:34:04.035Z,811
2022-10-03T15:36:30.712Z,879
2022-10-03T15:38:57.291Z,907
2022-10-03T15:41:22.470Z,1060
2022-10-03T15:43:49.023Z,1248
2022-10-03T15:46:15.680Z,1337
2022-10-03T15:48:42.267Z,1236
2022-10-03T15:51:08.975Z,1160
2022-10-03T15:53:35.601Z,1236
2022-10-03T15:56:02.134Z,1232
2022-10-03T15:58:28.762Z,1196
2022-10-03T16:00:55.407Z,1028
2022-10-03T16:03:22.009Z,875
2022-10-03T16:05:48.634Z,887
2022-10-03T16:08:15.252Z,855
2022-10-03T16:10:41.864Z,722
2022-10-03T16:13:07.005Z,630
2022-10-03T16:15:33.625Z,574
2022-10-03T16:18:00.251Z,538
2022-10-03T16:22:53.498Z,493
2022-10-03T16:25:20.135Z,477
2022-10-03T16:27:46.727Z,433
2022-10-03T16:30:13.420Z,417
2022-10-03T16:32:39.985Z,401
2022-10-03T16:35:06.597Z,373
2022-10-03T16:37:33.224Z,341
2022-10-03T16:39:59.915Z,313
2022-10-03T16:42:26.539Z,265
2022-10-03T16:44:51.607Z,216
2022-10-03T16:47:18.240Z,180
2022-10-03T16:49:44.839Z,148
2022-10-03T16:52:11.519Z,116
2022-10-03T16:57:04.704Z,68
2022-10-03T16:59:31.318Z,48
2022-10-03T17:01:57.947Z,32
2022-10-03T17:04:24.593Z,24
2022-10-03T17:06:51.212Z,16
2022-10-03T17:09:17.847Z,12
2022-10-03T17:11:44.572Z,8
2022-10-03T17:14:11.088Z,4
2022-10-03T17:16:36.183Z,0
2022-10-03T17:19:02.817Z,4
2022-10-03T17:21:29.427Z,0
2022-10-03T17:23:56.120Z,0
2022-10-03T17:26:22.717Z,0
2022-10-03T17:28:49.323Z,0
2022-10-03T17:31:15.926Z,0
2022-10-03T17:33:42.545Z,0
2022-10-03T17:36:09.170Z,0
2022-10-03T17:38:35.789Z,0
2022-10-03T17:41:02.407Z,0
2022-10-03T17:45:55.667Z,0
2022-10-03T17:48:22.349Z,0
2022-10-03T17:50:47.471Z,0
2022-10-03T17:53:14.131Z,0
2022-10-03T17:55:40.652Z,0
2022-10-03T17:58:07.355Z,0
2022-10-03T18:00:33.903Z,0
2022-10-03T18:03:00.537Z,0
2022-10-03T18:05:27.152Z,0
2022-10-03T18:07:53.779Z,0
2022-10-03T18:10:20.395Z,0
2022-10-03T18:12:47.121Z,0
2022-10-03T18:17:40.252Z,0
2022-10-03T18:20:06.907Z,0
2022-10-03T18:22:32.069Z,0
2022-10-03T18:24:58.723Z,0
2022-10-03T18:27:25.264Z,0
2022-10-03T18:29:51.954Z,0
2022-10-03T18:32:18.551Z,0
2022-10-03T18:37:11.866Z,0
2022-10-03T18:39:38.384Z,0
2022-10-03T18:42:05.019Z,0
2022-10-03T18:44:31.622Z,0
2022-10-03T18:49:24.969Z,0
2022-10-03T18:51:50.007Z,0
2022-10-03T18:56:41.802Z,0
2022-10-03T18:59:08.373Z,0
2022-10-03T19:01:35.097Z,0
2022-10-03T19:04:01.640Z,0
2022-10-03T19:06:28.303Z,0
2022-10-03T19:13:48.108Z,0
2022-10-03T19:16:14.734Z,0
2022-10-03T19:18:41.352Z,0
2022-10-03T19:21:08.064Z,0
2022-10-03T19:23:34.601Z,0
2022-10-03T19:25:59.771Z,0
2022-10-03T19:28:24.865Z,0
2022-10-03T19:30:51.473Z,0
2022-10-03T19:33:18.149Z,0
2022-10-03T19:35:44.745Z,0
2022-10-03T19:40:38.036Z,0
2022-10-03T19:45:31.268Z,0
2022-10-03T19:47:57.850Z,0
2022-10-03T19:50:24.460Z,0
2022-10-03T19:52:51.112Z,0
2022-10-03T19:55:17.788Z,0
2022-10-03T19:57:44.431Z,0
2022-10-03T20:00:09.450Z,0
2022-10-03T20:02:36.073Z,0
2022-10-03T20:05:02.755Z,0
2022-10-03T20:09:55.995Z,0
2022-10-03T20:12:22.585Z,0
2022-10-03T20:14:49.232Z,0
2022-10-03T20:17:15.840Z,0
2022-10-03T20:19:42.437Z,0
2022-10-03T20:22:09.071Z,0
2022-10-03T20:27:02.477Z,0
2022-10-03T20:29:28.949Z,0
2022-10-03T20:31:54.063Z,0
2022-10-03T20:34:20.730Z,0
2022-10-03T20:39:13.932Z,0
2022-10-03T20:41:40.632Z,0
2022-10-03T20:44:07.170Z,0
2022-10-03T20:46:33.896Z,0
2022-10-03T20:49:00.465Z,0
2022-10-03T20:53:53.668Z,0
2022-10-03T20:56:20.311Z,0
2022-10-03T20:58:46.944Z,0
2022-10-03T21:01:13.583Z,0
2022-10-03T21:03:38.710Z,0
2022-10-03T21:08:32.055Z,0
2022-10-03T21:13:25.242Z,0
2022-10-03T21:15:51.887Z,0
2022-10-03T21:18:18.466Z,0
2022-10-03T21:20:45.101Z,0
2022-10-03T21:23:11.662Z,0
2022-10-03T21:25:38.318Z,0
2022-10-03T21:28:04.914Z,0
2022-10-03T21:30:31.577Z,0
2022-10-03T21:32:58.244Z,0
2022-10-03T21:35:24.761Z,0
2022-10-03T21:40:16.516Z,0
2022-10-03T21:42:43.222Z,0
2022-10-03T21:45:09.771Z,0
2022-10-03T21:47:36.436Z,0
2022-10-03T21:57:22.879Z,0
2022-10-03T22:07:07.868Z,0
2022-10-03T22:09:33.178Z,0
2022-10-03T22:11:59.660Z,0
2022-10-03T22:14:26.341Z,0
2022-10-03T22:16:52.872Z,0
2022-10-03T22:19:19.516Z,0
2022-10-03T22:21:46.124Z,0
2022-10-03T22:24:12.758Z,0
2022-10-03T22:29:06.067Z,0
2022-10-03T22:31:32.665Z,0
2022-10-03T22:36:25.863Z,0
2022-10-03T22:38:52.527Z,0
2022-10-03T22:41:19.117Z,0
2022-10-03T22:43:44.299Z,0
2022-10-03T22:46:10.876Z,0
2022-10-03T22:48:37.528Z,0
2022-10-03T22:53:30.753Z,0
2022-10-03T22:55:57.396Z,0
2022-10-03T22:58:24.002Z,0
2022-10-03T23:00:50.601Z,0
2022-10-03T23:05:43.881Z,0
2022-10-03T23:08:10.581Z,0
2022-10-03T23:10:37.110Z,0
2022-10-03T23:13:03.775Z,0
2022-10-03T23:15:28.882Z,0
2022-10-03T23:17:55.514Z,0
2022-10-03T23:20:22.145Z,0
2022-10-03T23:25:15.381Z,0
2022-10-03T23:27:41.956Z,0
2022-10-03T23:30:08.585Z,0
2022-10-03T23:32:35.209Z,0
2022-10-03T23:35:01.825Z,0
2022-10-03T23:37:28.468Z,0
2022-10-03T23:39:55.067Z,0
2022-10-03T23:42:21.699Z,0
2022-10-03T23:44:48.366Z,0
2022-10-03T23:47:13.441Z,0
2022-10-03T23:49:40.080Z,0
2022-10-03T23:52:06.695Z,0
2022-10-03T23:54:33.330Z,0
2022-10-03T23:56:58.467Z,0
2022-10-03T23:59:23.589Z,0
